sensor_id;sensor_type;location;lat;lon;timestamp;pressure;altitude;pressure_sealevel;temperature;humidity
73422;BME280;61637;47.760;-122.022;2022-12-05T00:00:00;101591.7;;;0.0;56.5
73422;BME280;61637;47.760;-122.022;2022-12-05T00:02:00;101591.7;;;0.0;55.7
73422;BME280;61637;47.760;-122.022;2022-12-05T00:04:01;101591.7;;;0.0;54.1
73422;BME280;61637;47.760;-122.022;2022-12-05T00:06:00;101591.7;;;-0.1;53.6
73422;BME280;61637;47.760;-122.022;2022-12-05T00:08:00;101591.7;;;-0.1;55.1
73422;BME280;61637;47.760;-122.022;2022-12-05T00:10:00;101591.7;;;-0.1;55.5
73422;BME280;61637;47.760;-122.022;2022-12-05T00:12:00;101591.7;;;-0.1;54.8
73422;BME280;61637;47.760;-122.022;2022-12-05T00:14:01;101591.7;;;-0.1;56.1
73422;BME280;61637;47.760;-122.022;2022-12-05T00:16:00;101591.7;;;-0.1;54.7
73422;BME280;61637;47.760;-122.022;2022-12-05T00:18:00;101591.7;;;-0.1;53.6
73422;BME280;61637;47.760;-122.022;2022-12-05T00:20:00;101591.7;;;-0.1;54.2
73422;BME280;61637;47.760;-122.022;2022-12-05T00:22:00;101591.7;;;-0.1;55.3
73422;BME280;61637;47.760;-122.022;2022-12-05T00:24:00;101591.7;;;-0.1;55.5
73422;BME280;61637;47.760;-122.022;2022-12-05T00:26:01;101591.7;;;-0.1;57.2
73422;BME280;61637;47.760;-122.022;2022-12-05T00:28:00;101591.7;;;-0.1;57.6
73422;BME280;61637;47.760;-122.022;2022-12-05T00:30:00;101591.7;;;0.0;57.2
73422;BME280;61637;47.760;-122.022;2022-12-05T00:32:00;101591.7;;;0.0;58.3
73422;BME280;61637;47.760;-122.022;2022-12-05T00:34:00;101591.7;;;-0.1;58.2
73422;BME280;61637;47.760;-122.022;2022-12-05T00:36:01;101591.7;;;-0.1;58.7
73422;BME280;61637;47.760;-122.022;2022-12-05T00:38:00;101591.7;;;-0.1;58.5
73422;BME280;61637;47.760;-122.022;2022-12-05T00:40:00;101591.7;;;-0.1;58.8
73422;BME280;61637;47.760;-122.022;2022-12-05T00:42:00;101591.7;;;-0.1;58.9
73422;BME280;61637;47.760;-122.022;2022-12-05T00:44:01;101591.7;;;-0.1;58.2
73422;BME280;61637;47.760;-122.022;2022-12-05T00:46:01;101591.7;;;-0.1;57.0
73422;BME280;61637;47.760;-122.022;2022-12-05T00:48:01;101591.7;;;-0.2;56.5
73422;BME280;61637;47.760;-122.022;2022-12-05T00:50:00;101591.7;;;-0.2;57.3
73422;BME280;61637;47.760;-122.022;2022-12-05T00:52:00;101591.7;;;-0.2;55.7
73422;BME280;61637;47.760;-122.022;2022-12-05T00:54:02;101591.7;;;-0.1;55.3
73422;BME280;61637;47.760;-122.022;2022-12-05T00:56:01;101591.7;;;-0.2;56.1
73422;BME280;61637;47.760;-122.022;2022-12-05T00:58:00;101591.7;;;-0.2;55.9
73422;BME280;61637;47.760;-122.022;2022-12-05T01:00:00;101591.7;;;-0.2;57.2
73422;BME280;61637;47.760;-122.022;2022-12-05T01:02:00;101591.7;;;-0.2;57.2
73422;BME280;61637;47.760;-122.022;2022-12-05T01:04:01;101591.7;;;-0.2;56.0
73422;BME280;61637;47.760;-122.022;2022-12-05T01:06:01;101591.7;;;-0.2;56.0
73422;BME280;61637;47.760;-122.022;2022-12-05T01:08:00;101591.7;;;-0.2;55.9
73422;BME280;61637;47.760;-122.022;2022-12-05T01:10:00;101591.7;;;-0.2;56.0
73422;BME280;61637;47.760;-122.022;2022-12-05T01:12:00;101591.7;;;-0.2;57.1
73422;BME280;61637;47.760;-122.022;2022-12-05T01:14:00;101591.7;;;-0.2;56.5
73422;BME280;61637;47.760;-122.022;2022-12-05T01:16:00;101591.7;;;-0.2;56.4
73422;BME280;61637;47.760;-122.022;2022-12-05T01:18:00;101591.7;;;-0.2;57.1
73422;BME280;61637;47.760;-122.022;2022-12-05T01:20:00;101591.7;;;-0.2;57.0
73422;BME280;61637;47.760;-122.022;2022-12-05T01:22:00;101591.7;;;-0.2;56.2
73422;BME280;61637;47.760;-122.022;2022-12-05T01:24:00;101591.7;;;-0.2;56.2
73422;BME280;61637;47.760;-122.022;2022-12-05T01:26:00;101591.7;;;-0.2;55.6
73422;BME280;61637;47.760;-122.022;2022-12-05T01:28:00;101591.7;;;-0.2;55.8
73422;BME280;61637;47.760;-122.022;2022-12-05T01:30:00;101591.7;;;-0.3;56.6
73422;BME280;61637;47.760;-122.022;2022-12-05T01:32:00;101591.7;;;-0.3;56.6
73422;BME280;61637;47.760;-122.022;2022-12-05T01:34:01;101591.7;;;-0.3;57.2
73422;BME280;61637;47.760;-122.022;2022-12-05T01:36:00;101591.7;;;-0.3;56.2
73422;BME280;61637;47.760;-122.022;2022-12-05T01:38:00;101591.7;;;-0.2;55.5
73422;BME280;61637;47.760;-122.022;2022-12-05T01:40:00;101591.7;;;-0.2;56.6
73422;BME280;61637;47.760;-122.022;2022-12-05T01:42:00;101591.7;;;-0.2;56.9
73422;BME280;61637;47.760;-122.022;2022-12-05T01:44:02;101591.7;;;-0.3;57.4
73422;BME280;61637;47.760;-122.022;2022-12-05T01:46:00;101591.7;;;-0.3;55.6
73422;BME280;61637;47.760;-122.022;2022-12-05T01:48:01;101591.7;;;-0.3;55.7
73422;BME280;61637;47.760;-122.022;2022-12-05T01:50:00;101591.7;;;-0.3;56.4
73422;BME280;61637;47.760;-122.022;2022-12-05T01:52:05;101591.7;;;-0.2;56.9
73422;BME280;61637;47.760;-122.022;2022-12-05T01:54:00;101591.7;;;-0.3;57.2
73422;BME280;61637;47.760;-122.022;2022-12-05T01:56:00;101591.7;;;-0.2;58.0
73422;BME280;61637;47.760;-122.022;2022-12-05T01:58:00;101591.7;;;-0.2;57.5
73422;BME280;61637;47.760;-122.022;2022-12-05T02:00:03;101591.7;;;-0.2;56.6
73422;BME280;61637;47.760;-122.022;2022-12-05T02:02:00;101591.7;;;-0.2;57.2
73422;BME280;61637;47.760;-122.022;2022-12-05T02:04:00;101591.7;;;-0.2;57.7
73422;BME280;61637;47.760;-122.022;2022-12-05T02:06:00;101591.7;;;-0.2;57.9
73422;BME280;61637;47.760;-122.022;2022-12-05T02:08:02;101591.7;;;-0.2;57.7
73422;BME280;61637;47.760;-122.022;2022-12-05T02:10:00;101591.7;;;-0.2;58.2
73422;BME280;61637;47.760;-122.022;2022-12-05T02:12:01;101591.7;;;-0.2;58.2
73422;BME280;61637;47.760;-122.022;2022-12-05T02:14:07;101591.7;;;-0.2;57.9
73422;BME280;61637;47.760;-122.022;2022-12-05T02:16:02;101591.7;;;-0.2;57.7
73422;BME280;61637;47.760;-122.022;2022-12-05T02:18:06;101591.7;;;-0.2;57.5
73422;BME280;61637;47.760;-122.022;2022-12-05T02:20:04;101591.7;;;-0.2;57.7
73422;BME280;61637;47.760;-122.022;2022-12-05T02:22:06;101591.7;;;-0.2;57.9
73422;BME280;61637;47.760;-122.022;2022-12-05T02:24:04;101591.7;;;-0.2;57.8
73422;BME280;61637;47.760;-122.022;2022-12-05T02:26:08;101591.7;;;-0.2;57.3
73422;BME280;61637;47.760;-122.022;2022-12-05T02:28:06;101591.7;;;-0.2;56.9
73422;BME280;61637;47.760;-122.022;2022-12-05T02:30:03;101591.7;;;-0.2;57.1
73422;BME280;61637;47.760;-122.022;2022-12-05T02:32:03;101591.7;;;-0.2;57.0
73422;BME280;61637;47.760;-122.022;2022-12-05T02:34:03;101591.7;;;-0.2;57.2
73422;BME280;61637;47.760;-122.022;2022-12-05T02:36:01;101591.7;;;-0.2;56.8
73422;BME280;61637;47.760;-122.022;2022-12-05T02:38:03;101591.7;;;-0.2;56.4
73422;BME280;61637;47.760;-122.022;2022-12-05T02:40:02;101591.7;;;-0.2;56.9
73422;BME280;61637;47.760;-122.022;2022-12-05T02:42:01;101591.7;;;-0.2;59.0
73422;BME280;61637;47.760;-122.022;2022-12-05T02:44:02;101591.7;;;-0.2;58.8
73422;BME280;61637;47.760;-122.022;2022-12-05T02:46:02;101591.7;;;-0.2;56.4
73422;BME280;61637;47.760;-122.022;2022-12-05T02:48:00;101591.7;;;-0.2;57.0
73422;BME280;61637;47.760;-122.022;2022-12-05T02:50:00;101591.7;;;-0.2;55.5
73422;BME280;61637;47.760;-122.022;2022-12-05T02:52:01;101591.7;;;-0.2;57.4
73422;BME280;61637;47.760;-122.022;2022-12-05T02:54:01;101591.7;;;-0.2;57.3
73422;BME280;61637;47.760;-122.022;2022-12-05T02:56:00;101591.7;;;-0.2;56.8
73422;BME280;61637;47.760;-122.022;2022-12-05T02:58:02;101591.7;;;-0.2;55.3
73422;BME280;61637;47.760;-122.022;2022-12-05T03:00:00;101591.7;;;-0.1;55.0
73422;BME280;61637;47.760;-122.022;2022-12-05T03:02:00;101591.7;;;-0.1;55.0
73422;BME280;61637;47.760;-122.022;2022-12-05T03:04:02;101591.7;;;-0.1;55.6
73422;BME280;61637;47.760;-122.022;2022-12-05T03:06:01;101591.7;;;-0.1;57.6
73422;BME280;61637;47.760;-122.022;2022-12-05T03:08:00;101591.7;;;-0.1;58.4
73422;BME280;61637;47.760;-122.022;2022-12-05T03:10:01;101591.7;;;-0.1;59.8
73422;BME280;61637;47.760;-122.022;2022-12-05T03:12:02;101591.7;;;-0.1;60.3
73422;BME280;61637;47.760;-122.022;2022-12-05T03:14:01;101591.7;;;-0.1;59.1
73422;BME280;61637;47.760;-122.022;2022-12-05T03:16:01;101591.7;;;-0.1;59.4
73422;BME280;61637;47.760;-122.022;2022-12-05T03:18:02;101591.7;;;-0.2;60.3
73422;BME280;61637;47.760;-122.022;2022-12-05T03:20:03;101591.7;;;-0.1;60.2
73422;BME280;61637;47.760;-122.022;2022-12-05T03:22:01;101591.7;;;-0.2;59.6
73422;BME280;61637;47.760;-122.022;2022-12-05T03:24:02;101591.7;;;-0.2;58.4
73422;BME280;61637;47.760;-122.022;2022-12-05T03:26:02;101591.7;;;-0.1;57.4
73422;BME280;61637;47.760;-122.022;2022-12-05T03:28:02;101591.7;;;-0.2;56.8
73422;BME280;61637;47.760;-122.022;2022-12-05T03:30:01;101591.7;;;-0.2;59.6
73422;BME280;61637;47.760;-122.022;2022-12-05T03:32:04;101591.7;;;-0.2;60.3
73422;BME280;61637;47.760;-122.022;2022-12-05T03:34:00;101591.7;;;-0.2;59.5
73422;BME280;61637;47.760;-122.022;2022-12-05T03:36:01;101591.7;;;-0.2;59.1
73422;BME280;61637;47.760;-122.022;2022-12-05T03:38:02;101591.7;;;-0.2;58.7
73422;BME280;61637;47.760;-122.022;2022-12-05T03:40:03;101591.7;;;-0.2;59.2
73422;BME280;61637;47.760;-122.022;2022-12-05T03:42:01;101591.7;;;-0.2;60.7
73422;BME280;61637;47.760;-122.022;2022-12-05T03:44:02;101591.7;;;-0.2;60.5
73422;BME280;61637;47.760;-122.022;2022-12-05T03:46:02;101591.7;;;-0.2;58.4
73422;BME280;61637;47.760;-122.022;2022-12-05T03:48:03;101591.7;;;-0.2;57.5
73422;BME280;61637;47.760;-122.022;2022-12-05T03:50:02;101591.7;;;-0.2;58.5
73422;BME280;61637;47.760;-122.022;2022-12-05T03:52:03;101591.7;;;-0.2;57.9
73422;BME280;61637;47.760;-122.022;2022-12-05T03:54:01;101591.7;;;-0.2;58.4
73422;BME280;61637;47.760;-122.022;2022-12-05T03:56:01;101591.7;;;-0.2;55.7
73422;BME280;61637;47.760;-122.022;2022-12-05T03:58:01;101591.7;;;-0.2;54.4
73422;BME280;61637;47.760;-122.022;2022-12-05T04:00:02;101591.7;;;-0.3;54.5
73422;BME280;61637;47.760;-122.022;2022-12-05T04:02:01;101591.7;;;-0.3;56.3
73422;BME280;61637;47.760;-122.022;2022-12-05T04:04:02;101591.7;;;-0.3;54.0
73422;BME280;61637;47.760;-122.022;2022-12-05T04:06:00;101591.7;;;-0.3;54.5
73422;BME280;61637;47.760;-122.022;2022-12-05T04:08:02;101591.7;;;-0.3;56.0
73422;BME280;61637;47.760;-122.022;2022-12-05T04:10:01;101591.7;;;-0.3;56.2
73422;BME280;61637;47.760;-122.022;2022-12-05T04:12:01;101591.7;;;-0.3;55.4
73422;BME280;61637;47.760;-122.022;2022-12-05T04:14:01;101591.7;;;-0.3;55.2
73422;BME280;61637;47.760;-122.022;2022-12-05T04:16:01;101591.7;;;-0.3;55.9
73422;BME280;61637;47.760;-122.022;2022-12-05T04:18:00;101591.7;;;-0.3;57.0
73422;BME280;61637;47.760;-122.022;2022-12-05T04:20:01;101591.7;;;-0.3;56.7
73422;BME280;61637;47.760;-122.022;2022-12-05T04:22:00;101591.7;;;-0.3;55.9
73422;BME280;61637;47.760;-122.022;2022-12-05T04:24:00;101591.7;;;-0.3;56.5
73422;BME280;61637;47.760;-122.022;2022-12-05T04:26:02;101591.7;;;-0.4;57.0
73422;BME280;61637;47.760;-122.022;2022-12-05T04:28:04;101591.7;;;-0.4;57.5
73422;BME280;61637;47.760;-122.022;2022-12-05T04:30:01;101591.7;;;-0.4;57.7
73422;BME280;61637;47.760;-122.022;2022-12-05T04:32:03;101591.7;;;-0.4;57.1
73422;BME280;61637;47.760;-122.022;2022-12-05T04:34:01;101591.7;;;-0.4;57.6
73422;BME280;61637;47.760;-122.022;2022-12-05T04:36:02;101591.7;;;-0.4;56.2
73422;BME280;61637;47.760;-122.022;2022-12-05T04:38:02;101591.7;;;-0.4;57.0
73422;BME280;61637;47.760;-122.022;2022-12-05T04:40:01;101591.7;;;-0.4;56.7
73422;BME280;61637;47.760;-122.022;2022-12-05T04:42:01;101591.7;;;-0.4;56.5
73422;BME280;61637;47.760;-122.022;2022-12-05T04:44:02;101591.7;;;-0.4;56.5
73422;BME280;61637;47.760;-122.022;2022-12-05T04:46:00;101591.7;;;-0.4;56.7
73422;BME280;61637;47.760;-122.022;2022-12-05T04:48:01;101591.7;;;-0.5;56.8
73422;BME280;61637;47.760;-122.022;2022-12-05T04:50:00;101591.7;;;-0.5;55.6
73422;BME280;61637;47.760;-122.022;2022-12-05T04:52:02;101591.7;;;-0.5;55.4
73422;BME280;61637;47.760;-122.022;2022-12-05T04:54:02;101591.7;;;-0.5;56.3
73422;BME280;61637;47.760;-122.022;2022-12-05T04:56:01;101591.7;;;-0.5;56.6
73422;BME280;61637;47.760;-122.022;2022-12-05T04:58:02;101591.7;;;-0.5;57.5
73422;BME280;61637;47.760;-122.022;2022-12-05T05:00:00;101591.7;;;-0.5;56.1
73422;BME280;61637;47.760;-122.022;2022-12-05T05:02:02;101591.7;;;-0.6;55.2
73422;BME280;61637;47.760;-122.022;2022-12-05T05:04:01;101591.7;;;-0.6;55.0
73422;BME280;61637;47.760;-122.022;2022-12-05T05:06:00;101591.7;;;-0.5;56.4
73422;BME280;61637;47.760;-122.022;2022-12-05T05:08:00;101591.7;;;-0.6;56.0
73422;BME280;61637;47.760;-122.022;2022-12-05T05:10:00;101591.7;;;-0.6;55.5
73422;BME280;61637;47.760;-122.022;2022-12-05T05:12:00;101591.7;;;-0.5;56.6
73422;BME280;61637;47.760;-122.022;2022-12-05T05:14:01;101591.7;;;-0.6;56.1
73422;BME280;61637;47.760;-122.022;2022-12-05T05:16:01;101591.7;;;-0.6;55.1
73422;BME280;61637;47.760;-122.022;2022-12-05T05:18:00;101591.7;;;-0.6;55.7
73422;BME280;61637;47.760;-122.022;2022-12-05T05:20:00;101591.7;;;-0.6;55.0
73422;BME280;61637;47.760;-122.022;2022-12-05T05:22:00;101591.7;;;-0.6;54.5
73422;BME280;61637;47.760;-122.022;2022-12-05T05:24:01;101930.339;;;-0.6;53.7
73422;BME280;61637;47.760;-122.022;2022-12-05T05:26:00;101591.7;;;-0.6;53.7
73422;BME280;61637;47.760;-122.022;2022-12-05T05:28:00;101591.7;;;-0.6;54.7
73422;BME280;61637;47.760;-122.022;2022-12-05T05:30:00;101591.7;;;-0.6;55.4
73422;BME280;61637;47.760;-122.022;2022-12-05T05:32:01;101591.7;;;-0.6;56.8
73422;BME280;61637;47.760;-122.022;2022-12-05T05:34:00;101591.7;;;-0.6;55.1
73422;BME280;61637;47.760;-122.022;2022-12-05T05:36:02;101591.7;;;-0.7;54.9
73422;BME280;61637;47.760;-122.022;2022-12-05T05:38:01;101591.7;;;-0.7;54.3
73422;BME280;61637;47.760;-122.022;2022-12-05T05:40:00;101591.7;;;-0.7;53.9
73422;BME280;61637;47.760;-122.022;2022-12-05T05:42:00;101591.7;;;-0.7;54.1
73422;BME280;61637;47.760;-122.022;2022-12-05T05:44:00;101591.7;;;-0.7;54.9
73422;BME280;61637;47.760;-122.022;2022-12-05T05:46:02;101591.7;;;-0.8;55.0
73422;BME280;61637;47.760;-122.022;2022-12-05T05:48:00;101930.339;;;-0.8;55.8
73422;BME280;61637;47.760;-122.022;2022-12-05T05:50:00;101930.339;;;-0.8;54.6
73422;BME280;61637;47.760;-122.022;2022-12-05T05:52:00;101930.339;;;-0.8;54.8
73422;BME280;61637;47.760;-122.022;2022-12-05T05:54:00;101930.339;;;-0.8;56.4
73422;BME280;61637;47.760;-122.022;2022-12-05T05:56:01;101930.339;;;-0.8;55.9
73422;BME280;61637;47.760;-122.022;2022-12-05T05:58:00;101930.339;;;-0.8;55.5
73422;BME280;61637;47.760;-122.022;2022-12-05T06:00:00;101930.339;;;-0.8;55.6
73422;BME280;61637;47.760;-122.022;2022-12-05T06:02:00;101930.339;;;-0.9;56.9
73422;BME280;61637;47.760;-122.022;2022-12-05T06:04:00;101930.339;;;-0.9;55.9
73422;BME280;61637;47.760;-122.022;2022-12-05T06:06:01;101930.339;;;-0.9;56.2
73422;BME280;61637;47.760;-122.022;2022-12-05T06:08:00;101930.339;;;-0.9;56.0
73422;BME280;61637;47.760;-122.022;2022-12-05T06:10:00;101930.339;;;-1.0;55.0
73422;BME280;61637;47.760;-122.022;2022-12-05T06:12:00;101930.339;;;-0.9;55.9
73422;BME280;61637;47.760;-122.022;2022-12-05T06:14:00;101930.339;;;-1.0;56.5
73422;BME280;61637;47.760;-122.022;2022-12-05T06:16:01;101930.339;;;-1.1;57.5
73422;BME280;61637;47.760;-122.022;2022-12-05T06:18:00;101930.339;;;-1.1;56.1
73422;BME280;61637;47.760;-122.022;2022-12-05T06:20:01;101930.339;;;-1.1;54.7
73422;BME280;61637;47.760;-122.022;2022-12-05T06:22:00;101930.339;;;-1.1;55.1
73422;BME280;61637;47.760;-122.022;2022-12-05T06:24:00;101930.339;;;-1.1;54.9
73422;BME280;61637;47.760;-122.022;2022-12-05T06:26:00;101930.339;;;-1.1;54.8
73422;BME280;61637;47.760;-122.022;2022-12-05T06:28:00;101930.339;;;-1.1;54.4
73422;BME280;61637;47.760;-122.022;2022-12-05T06:30:00;101930.339;;;-1.2;53.6
73422;BME280;61637;47.760;-122.022;2022-12-05T06:32:00;101930.339;;;-1.2;53.6
73422;BME280;61637;47.760;-122.022;2022-12-05T06:34:00;101930.339;;;-1.2;54.1
73422;BME280;61637;47.760;-122.022;2022-12-05T06:36:01;101930.339;;;-1.2;57.6
73422;BME280;61637;47.760;-122.022;2022-12-05T06:38:00;101930.339;;;-1.2;56.0
73422;BME280;61637;47.760;-122.022;2022-12-05T06:40:00;101930.339;;;-1.2;55.4
73422;BME280;61637;47.760;-122.022;2022-12-05T06:42:00;101930.339;;;-1.3;55.6
73422;BME280;61637;47.760;-122.022;2022-12-05T06:44:00;101930.339;;;-1.3;55.6
73422;BME280;61637;47.760;-122.022;2022-12-05T06:46:03;101930.339;;;-1.3;55.4
73422;BME280;61637;47.760;-122.022;2022-12-05T06:48:00;101930.339;;;-1.3;56.3
73422;BME280;61637;47.760;-122.022;2022-12-05T06:50:00;101930.339;;;-1.4;55.4
73422;BME280;61637;47.760;-122.022;2022-12-05T06:52:00;101930.339;;;-1.4;55.1
73422;BME280;61637;47.760;-122.022;2022-12-05T06:54:00;101930.339;;;-1.4;56.2
73422;BME280;61637;47.760;-122.022;2022-12-05T06:56:01;101930.339;;;-1.4;57.1
73422;BME280;61637;47.760;-122.022;2022-12-05T06:58:00;101930.339;;;-1.4;55.2
73422;BME280;61637;47.760;-122.022;2022-12-05T07:00:00;101930.339;;;-1.4;55.4
73422;BME280;61637;47.760;-122.022;2022-12-05T07:02:00;101930.339;;;-1.4;54.7
73422;BME280;61637;47.760;-122.022;2022-12-05T07:04:00;101930.339;;;-1.4;54.1
73422;BME280;61637;47.760;-122.022;2022-12-05T07:06:00;101930.339;;;-1.4;54.4
73422;BME280;61637;47.760;-122.022;2022-12-05T07:08:00;101930.339;;;-1.4;55.1
73422;BME280;61637;47.760;-122.022;2022-12-05T07:10:00;101930.339;;;-1.5;56.6
73422;BME280;61637;47.760;-122.022;2022-12-05T07:12:00;101930.339;;;-1.5;57.0
73422;BME280;61637;47.760;-122.022;2022-12-05T07:14:02;101930.339;;;-1.5;57.2
73422;BME280;61637;47.760;-122.022;2022-12-05T07:16:00;101930.339;;;-1.5;57.3
73422;BME280;61637;47.760;-122.022;2022-12-05T07:18:00;101930.339;;;-1.5;57.4
73422;BME280;61637;47.760;-122.022;2022-12-05T07:20:00;101930.339;;;-1.5;55.8
73422;BME280;61637;47.760;-122.022;2022-12-05T07:22:00;101930.339;;;-1.5;54.7
73422;BME280;61637;47.760;-122.022;2022-12-05T07:24:00;101930.339;;;-1.6;55.7
73422;BME280;61637;47.760;-122.022;2022-12-05T07:26:03;101930.339;;;-1.6;56.8
73422;BME280;61637;47.760;-122.022;2022-12-05T07:28:00;101930.339;;;-1.6;55.4
73422;BME280;61637;47.760;-122.022;2022-12-05T07:30:00;101930.339;;;-1.6;55.0
73422;BME280;61637;47.760;-122.022;2022-12-05T07:32:01;101930.339;;;-1.6;54.4
73422;BME280;61637;47.760;-122.022;2022-12-05T07:34:00;101930.339;;;-1.6;54.4
73422;BME280;61637;47.760;-122.022;2022-12-05T07:36:01;101930.339;;;-1.6;54.1
73422;BME280;61637;47.760;-122.022;2022-12-05T07:38:00;101930.339;;;-1.6;54.4
73422;BME280;61637;47.760;-122.022;2022-12-05T07:40:00;101930.339;;;-1.6;54.4
73422;BME280;61637;47.760;-122.022;2022-12-05T07:42:00;101930.339;;;-1.6;54.4
73422;BME280;61637;47.760;-122.022;2022-12-05T07:44:00;101930.339;;;-1.6;56.0
73422;BME280;61637;47.760;-122.022;2022-12-05T07:46:01;101930.339;;;-1.7;57.0
73422;BME280;61637;47.760;-122.022;2022-12-05T07:48:00;101930.339;;;-1.7;56.7
73422;BME280;61637;47.760;-122.022;2022-12-05T07:50:00;101930.339;;;-1.7;54.1
73422;BME280;61637;47.760;-122.022;2022-12-05T07:52:00;101930.339;;;-1.7;54.4
73422;BME280;61637;47.760;-122.022;2022-12-05T07:54:00;101930.339;;;-1.7;56.1
73422;BME280;61637;47.760;-122.022;2022-12-05T07:56:01;101930.339;;;-1.7;54.7
73422;BME280;61637;47.760;-122.022;2022-12-05T07:58:00;101930.339;;;-1.7;55.1
73422;BME280;61637;47.760;-122.022;2022-12-05T08:00:00;101930.339;;;-1.8;56.9
73422;BME280;61637;47.760;-122.022;2022-12-05T08:02:00;101930.339;;;-1.8;56.2
73422;BME280;61637;47.760;-122.022;2022-12-05T08:04:00;101930.339;;;-1.7;56.5
73422;BME280;61637;47.760;-122.022;2022-12-05T08:06:01;101930.339;;;-1.8;56.5
73422;BME280;61637;47.760;-122.022;2022-12-05T08:08:00;101930.339;;;-1.8;56.7
73422;BME280;61637;47.760;-122.022;2022-12-05T08:10:00;101930.339;;;-1.8;55.9
73422;BME280;61637;47.760;-122.022;2022-12-05T08:12:00;101930.339;;;-1.8;55.3
73422;BME280;61637;47.760;-122.022;2022-12-05T08:14:01;101930.339;;;-1.8;56.0
73422;BME280;61637;47.760;-122.022;2022-12-05T08:16:01;101930.339;;;-1.8;55.3
73422;BME280;61637;47.760;-122.022;2022-12-05T08:18:00;101930.339;;;-1.8;55.4
73422;BME280;61637;47.760;-122.022;2022-12-05T08:20:00;101930.339;;;-1.7;55.5
73422;BME280;61637;47.760;-122.022;2022-12-05T08:22:00;101930.339;;;-1.7;56.8
73422;BME280;61637;47.760;-122.022;2022-12-05T08:24:02;101930.339;;;-1.7;56.9
73422;BME280;61637;47.760;-122.022;2022-12-05T08:26:01;101930.339;;;-1.7;55.5
73422;BME280;61637;47.760;-122.022;2022-12-05T08:28:00;101930.339;;;-1.7;55.2
73422;BME280;61637;47.760;-122.022;2022-12-05T08:30:00;101930.339;;;-1.7;55.4
73422;BME280;61637;47.760;-122.022;2022-12-05T08:32:00;101930.339;;;-1.8;54.7
73422;BME280;61637;47.760;-122.022;2022-12-05T08:34:00;101930.339;;;-1.8;56.0
73422;BME280;61637;47.760;-122.022;2022-12-05T08:36:00;101930.339;;;-1.8;55.7
73422;BME280;61637;47.760;-122.022;2022-12-05T08:38:00;101930.339;;;-1.7;55.1
73422;BME280;61637;47.760;-122.022;2022-12-05T08:40:00;101930.339;;;-1.8;55.0
73422;BME280;61637;47.760;-122.022;2022-12-05T08:42:00;101930.339;;;-1.7;54.8
73422;BME280;61637;47.760;-122.022;2022-12-05T08:44:01;101930.339;;;-1.8;55.0
73422;BME280;61637;47.760;-122.022;2022-12-05T08:46:01;101930.339;;;-1.8;54.3
73422;BME280;61637;47.760;-122.022;2022-12-05T08:48:00;101930.339;;;-1.8;54.6
73422;BME280;61637;47.760;-122.022;2022-12-05T08:50:00;101930.339;;;-1.8;54.9
73422;BME280;61637;47.760;-122.022;2022-12-05T08:52:00;101930.339;;;-1.8;55.4
73422;BME280;61637;47.760;-122.022;2022-12-05T08:54:00;101930.339;;;-1.8;55.1
73422;BME280;61637;47.760;-122.022;2022-12-05T08:56:00;101930.339;;;-1.8;54.2
73422;BME280;61637;47.760;-122.022;2022-12-05T08:58:00;101930.339;;;-1.9;54.8
73422;BME280;61637;47.760;-122.022;2022-12-05T09:00:00;101930.339;;;-1.9;55.1
73422;BME280;61637;47.760;-122.022;2022-12-05T09:02:00;101930.339;;;-1.9;54.7
73422;BME280;61637;47.760;-122.022;2022-12-05T09:04:00;101930.339;;;-1.9;54.6
73422;BME280;61637;47.760;-122.022;2022-12-05T09:06:08;101930.339;;;-1.9;55.3
73422;BME280;61637;47.760;-122.022;2022-12-05T09:08:00;101930.339;;;-1.9;55.7
73422;BME280;61637;47.760;-122.022;2022-12-05T09:10:00;101930.339;;;-2.0;56.7
73422;BME280;61637;47.760;-122.022;2022-12-05T09:12:00;101930.339;;;-2.1;55.2
73422;BME280;61637;47.760;-122.022;2022-12-05T09:14:01;101930.339;;;-2.2;56.7
73422;BME280;61637;47.760;-122.022;2022-12-05T09:16:04;101930.339;;;-2.2;56.7
73422;BME280;61637;47.760;-122.022;2022-12-05T09:18:00;101930.339;;;-2.3;54.5
73422;BME280;61637;47.760;-122.022;2022-12-05T09:20:00;101930.339;;;-2.3;55.3
73422;BME280;61637;47.760;-122.022;2022-12-05T09:22:00;101930.339;;;-2.3;55.1
73422;BME280;61637;47.760;-122.022;2022-12-05T09:24:00;101930.339;;;-2.4;56.1
73422;BME280;61637;47.760;-122.022;2022-12-05T09:26:01;101930.339;;;-2.4;54.9
73422;BME280;61637;47.760;-122.022;2022-12-05T09:28:00;101930.339;;;-2.4;54.5
73422;BME280;61637;47.760;-122.022;2022-12-05T09:30:00;101930.339;;;-2.4;54.6
73422;BME280;61637;47.760;-122.022;2022-12-05T09:32:00;101930.339;;;-2.4;54.9
73422;BME280;61637;47.760;-122.022;2022-12-05T09:34:00;101930.339;;;-2.4;54.9
73422;BME280;61637;47.760;-122.022;2022-12-05T09:36:01;101930.339;;;-2.5;54.8
73422;BME280;61637;47.760;-122.022;2022-12-05T09:38:00;101930.339;;;-2.4;55.0
73422;BME280;61637;47.760;-122.022;2022-12-05T09:40:00;101930.339;;;-2.4;55.1
73422;BME280;61637;47.760;-122.022;2022-12-05T09:42:08;101930.339;;;-2.4;55.8
73422;BME280;61637;47.760;-122.022;2022-12-05T09:44:01;101930.339;;;-2.4;56.9
73422;BME280;61637;47.760;-122.022;2022-12-05T09:46:02;101930.339;;;-2.4;57.4
73422;BME280;61637;47.760;-122.022;2022-12-05T09:48:03;101930.339;;;-2.4;56.3
73422;BME280;61637;47.760;-122.022;2022-12-05T09:50:01;101930.339;;;-2.4;57.7
73422;BME280;61637;47.760;-122.022;2022-12-05T09:52:00;101930.339;;;-2.4;57.1
73422;BME280;61637;47.760;-122.022;2022-12-05T09:54:01;101930.339;;;-2.4;56.5
73422;BME280;61637;47.760;-122.022;2022-12-05T09:56:02;101930.339;;;-2.4;55.8
73422;BME280;61637;47.760;-122.022;2022-12-05T09:58:01;101930.339;;;-2.4;54.7
73422;BME280;61637;47.760;-122.022;2022-12-05T10:00:00;101930.339;;;-2.4;55.3
73422;BME280;61637;47.760;-122.022;2022-12-05T10:02:02;101930.339;;;-2.4;55.6
73422;BME280;61637;47.760;-122.022;2022-12-05T10:04:04;101930.339;;;-2.4;55.1
73422;BME280;61637;47.760;-122.022;2022-12-05T10:06:04;101930.339;;;-2.4;55.1
73422;BME280;61637;47.760;-122.022;2022-12-05T10:08:01;101930.339;;;-2.4;55.4
73422;BME280;61637;47.760;-122.022;2022-12-05T10:10:04;101930.339;;;-2.4;56.4
73422;BME280;61637;47.760;-122.022;2022-12-05T10:12:02;101930.339;;;-2.4;57.1
73422;BME280;61637;47.760;-122.022;2022-12-05T10:14:01;101930.339;;;-2.4;56.8
73422;BME280;61637;47.760;-122.022;2022-12-05T10:16:02;101930.339;;;-2.4;57.3
73422;BME280;61637;47.760;-122.022;2022-12-05T10:18:01;101930.339;;;-2.4;57.0